»·PEaware :: N2918L KPSP-KBUR

N2918L :: KPSP-KBUR

FLIGHT INFORMATION

Flight Status: Arrived
Operator: Privately registered:
United States
More flights under this callsign
Pilot: Anonymous 16594 (16594)
Aircraft: PIPER PA-24 COMMANCHE
(PA24)
More flights by this aircraft type
Origin: KPSP Palm Springs Intl
United States
Destination: KBUR Bob Hope-Burbank
United States
More flights between these airports :: More routes between these airports
Route: +
File this flight plan on PilotEdge
Remarks:
Altitude:
(Current/Filed)
0ft
Speed:
(Current/Filed)
0kts
Departed: 14-Jan-18 11:43 AM
Arrived: 14-Jan-18 12:28 PM
Distance/Time
Traveled:
94nm/0:45
Distance/Time
To Go:
Arrived

Flight Plot

Page will automatically refresh every two minutes.

Flight plan parsing failed; only flown route is shown


Map Options




Map Legend


Flown Route
Filed Route
Departure Airport
Arrival Airport
Navaid (VOR, NDB)
Fix

Horizontal Profiles

Position Reports

Time Latitude Longitude Heading Altitude Ground
Speed
14-Jan-18 11:37 33.824451 -116.497845 54 480ft 0kts
14-Jan-18 11:38 33.824453 -116.497842 54 480ft 0kts
14-Jan-18 11:39 33.824245 -116.498185 232 480ft 0kts
14-Jan-18 11:40 33.824244 -116.498187 232 480ft 0kts
14-Jan-18 11:41 33.824242 -116.498189 232 480ft 0kts
14-Jan-18 11:42 33.824241 -116.498191 232 480ft 0kts
14-Jan-18 11:43 33.824240 -116.498193 232 480ft 0kts
14-Jan-18 11:44 33.824238 -116.498196 232 480ft 0kts
14-Jan-18 11:45 33.824237 -116.498197 232 480ft 0kts
14-Jan-18 11:46 33.824612 -116.499580 227 480ft 0kts
14-Jan-18 11:47 33.824609 -116.499584 227 480ft 0kts
14-Jan-18 11:48 33.824515 -116.499711 230 480ft 9kts
14-Jan-18 11:49 33.832034 -116.507091 317 649ft 88kts
14-Jan-18 11:50 33.854450 -116.528995 319 1659ft 116kts
14-Jan-18 11:51 33.881906 -116.559311 296 2669ft 121kts
14-Jan-18 11:52 33.885731 -116.593856 279 3582ft 124kts
14-Jan-18 11:53 33.892720 -116.635410 283 4567ft 128kts
14-Jan-18 11:54 33.900099 -116.678260 282 5406ft 132kts
14-Jan-18 11:55 33.908510 -116.721875 284 6225ft 135kts
14-Jan-18 11:56 33.915264 -116.766929 272 6973ft 138kts
14-Jan-18 11:57 33.920474 -116.812898 278 7539ft 138kts
14-Jan-18 11:58 33.927555 -116.859283 279 8351ft 143kts
14-Jan-18 11:59 33.935210 -116.906978 281 9136ft 146kts
14-Jan-18 12:00 33.943073 -116.954582 279 9851ft 144kts
14-Jan-18 12:01 33.950913 -117.002747 282 10089ft 151kts
14-Jan-18 12:02 33.958995 -117.050430 280 9503ft 137kts
14-Jan-18 12:03 33.966216 -117.095885 281 9550ft 144kts
14-Jan-18 12:04 33.974668 -117.145130 281 9543ft 152kts
14-Jan-18 12:05 33.979885 -117.178291 280 9546ft 155kts
14-Jan-18 12:06 33.983274 -117.200317 278 9539ft 155kts
14-Jan-18 12:07 33.992105 -117.252812 281 9535ft 160kts
14-Jan-18 12:08 34.000941 -117.305829 279 9531ft 160kts
14-Jan-18 12:09 34.009636 -117.360143 281 9517ft 162kts
14-Jan-18 12:10 34.018253 -117.412036 280 9509ft 154kts
14-Jan-18 12:11 34.026000 -117.462035 280 9506ft 150kts
14-Jan-18 12:12 34.034233 -117.510966 280 9502ft 148kts
14-Jan-18 12:13 34.041906 -117.559690 280 9497ft 148kts
14-Jan-18 12:14 34.049872 -117.608460 280 9497ft 148kts
14-Jan-18 12:15 34.057654 -117.657195 279 9497ft 148kts
14-Jan-18 12:16 34.065380 -117.705865 280 9503ft 147kts
14-Jan-18 12:17 34.073195 -117.754533 280 9517ft 147kts
14-Jan-18 12:18 34.081382 -117.803932 284 9454ft 154kts
14-Jan-18 12:19 34.093011 -117.855536 283 8519ft 158kts
14-Jan-18 12:20 34.104315 -117.907136 283 7802ft 159kts
14-Jan-18 12:21 34.115377 -117.958490 284 7348ft 159kts
14-Jan-18 12:22 34.126618 -118.010675 283 6461ft 161kts
14-Jan-18 12:23 34.137766 -118.062441 283 5659ft 158kts
14-Jan-18 12:24 34.148422 -118.112857 284 5171ft 153kts
14-Jan-18 12:25 34.159489 -118.163833 284 4678ft 154kts
14-Jan-18 12:26 34.170029 -118.213660 284 3874ft 155kts
14-Jan-18 12:27 34.180094 -118.262312 285 3233ft 145kts
14-Jan-18 12:28 34.190600 -118.309652 291 2714ft 145kts
14-Jan-18 12:29 34.222318 -118.337473 331 2053ft 145kts
14-Jan-18 12:30 34.232622 -118.378716 270 1590ft 113kts
14-Jan-18 12:31 34.220514 -118.409021 175 1193ft 118kts
14-Jan-18 12:32 34.199316 -118.387712 106 1076ft 91kts
14-Jan-18 12:33 34.197813 -118.360067 91 781ft 56kts
14-Jan-18 12:34 34.197396 -118.355091 169 781ft 7kts
14-Jan-18 12:35 34.197253 -118.355071 175 781ft 0kts
14-Jan-18 12:36 34.197250 -118.355071 175 781ft 0kts
14-Jan-18 12:37 34.197248 -118.355070 175 781ft 0kts
14-Jan-18 12:38 34.197241 -118.355070 175 781ft 1kts
14-Jan-18 12:39 34.196712 -118.352626 173 781ft 0kts
14-Jan-18 12:40 34.196711 -118.352626 173 781ft 0kts

Navigation Log

Ident Type
Flight plan parsing failed, navigation log unavailable